Aérodrome :







RETROUVEZ-NOUS SUR...

 
LOGIN :

S'inscrire | Disclaimer

   EN    FR    IT 

 









Légende :    VFR   VFR Marginal   IFR   IFR Intensif   IFR Très Intensif
Visi : 
Plafond : 
>= 8 km
>= 3000ft
5 à 8 km
1000 à 3000 ft
1500m à 5 km
500 à 1000 ft
800 à 1500m
200 à 500 ft
< 800m
< 200 ft
Symboles :   Orages  Brouillard  Fortes neiges  Fortes précipitations  Vent > 20 kt






- Altitude de l'aérodrome : 74 ft
- Code IATA : STX


TISX - Henri E Rohlsen

DERNIER METAR :
  • 251553Z 10017G23KT 10SM SCT029 SCT037 32/25 A3001 RMK AO2 SLP160 T03220250

METARs EXPIRÉS :
  • 251453Z 07015G21KT 040V100 10SM SCT025 SCT035 32/26 A3003 RMK AO2 SLP166 T03170261 58001
  • 251353Z 06011KT 10SM FEW030 SCT035 31/25 A3004 RMK AO2 SLP169 T03110250

TAF TISX
Valide du 25 à 12h jusqu'au 26 à 12h UTC


251136Z 2512/2612 05006KT P6SM VCSH FEW027 SCT035 BKN045
FM251400 08011KT P6SM FEW028 SCT040
FM251700 10015KT P6SM FEW028 SCT035
FM252200 05007KT P6SM FEW026
FM260400 06008KT P6SM VCSH SCT025 SCT040
FIR TJZS / Amérique du Nord



MET'MAP, la Météo Aéronautique d'un coup d'oeil ! - Copyright ORBIFLY Décembre 2007 - Disclaimer

ORBIFLY MET'MAP TEAM :

Programmation & Développement : Alexandra Zaïnal
Sur une idée originale de : Baudouin d'Aumeries
Assistance à la programmation : Marc-Olivier Méhu
Soutien technique & logistique : Manuel Goepfert

Contact : metmap@orbifly.com




SOURCES & CREDITS :

   NOAA